sensor_id;sensor_type;location;lat;lon;timestamp;temperature;humidity
18794;DHT22;29610;49.022;12.114;2023-06-05T00:00:02;16.10;57.70
18794;DHT22;29610;49.022;12.114;2023-06-05T00:02:38;16.00;57.70
18794;DHT22;29610;49.022;12.114;2023-06-05T00:05:07;16.00;57.80
18794;DHT22;29610;49.022;12.114;2023-06-05T00:07:36;15.90;57.90
18794;DHT22;29610;49.022;12.114;2023-06-05T00:10:06;16.00;57.40
18794;DHT22;29610;49.022;12.114;2023-06-05T00:12:36;16.10;57.10
18794;DHT22;29610;49.022;12.114;2023-06-05T00:15:08;16.10;57.20
18794;DHT22;29610;49.022;12.114;2023-06-05T00:17:37;16.10;57.20
18794;DHT22;29610;49.022;12.114;2023-06-05T00:20:07;16.10;57.20
18794;DHT22;29610;49.022;12.114;2023-06-05T00:22:40;16.10;57.00
18794;DHT22;29610;49.022;12.114;2023-06-05T00:25:11;16.10;56.80
18794;DHT22;29610;49.022;12.114;2023-06-05T00:27:40;16.10;56.60
18794;DHT22;29610;49.022;12.114;2023-06-05T00:30:11;16.20;56.50
18794;DHT22;29610;49.022;12.114;2023-06-05T00:32:41;16.20;56.60
18794;DHT22;29610;49.022;12.114;2023-06-05T00:35:10;16.10;56.60
18794;DHT22;29610;49.022;12.114;2023-06-05T00:37:39;16.10;56.90
18794;DHT22;29610;49.022;12.114;2023-06-05T00:40:08;16.10;56.90
18794;DHT22;29610;49.022;12.114;2023-06-05T00:42:37;16.10;56.90
18794;DHT22;29610;49.022;12.114;2023-06-05T00:45:07;16.10;56.70
18794;DHT22;29610;49.022;12.114;2023-06-05T00:47:39;16.00;56.70
18794;DHT22;29610;49.022;12.114;2023-06-05T00:50:10;16.00;57.20
18794;DHT22;29610;49.022;12.114;2023-06-05T00:52:41;16.00;57.10
18794;DHT22;29610;49.022;12.114;2023-06-05T00:55:11;16.00;56.70
18794;DHT22;29610;49.022;12.114;2023-06-05T00:57:42;15.90;56.80
18794;DHT22;29610;49.022;12.114;2023-06-05T01:00:13;15.90;56.70
18794;DHT22;29610;49.022;12.114;2023-06-05T01:02:44;15.90;57.00
18794;DHT22;29610;49.022;12.114;2023-06-05T01:05:13;15.90;56.70
18794;DHT22;29610;49.022;12.114;2023-06-05T01:07:43;15.90;56.90
18794;DHT22;29610;49.022;12.114;2023-06-05T01:10:15;15.90;56.80
18794;DHT22;29610;49.022;12.114;2023-06-05T01:12:50;15.80;57.10
18794;DHT22;29610;49.022;12.114;2023-06-05T01:15:28;15.80;57.20
18794;DHT22;29610;49.022;12.114;2023-06-05T01:18:02;15.80;57.20
18794;DHT22;29610;49.022;12.114;2023-06-05T01:20:33;15.80;57.30
18794;DHT22;29610;49.022;12.114;2023-06-05T01:23:04;15.80;57.40
18794;DHT22;29610;49.022;12.114;2023-06-05T01:25:33;15.70;57.40
18794;DHT22;29610;49.022;12.114;2023-06-05T01:28:08;15.80;57.40
18794;DHT22;29610;49.022;12.114;2023-06-05T01:30:45;15.70;57.50
18794;DHT22;29610;49.022;12.114;2023-06-05T01:33:25;15.70;58.10
18794;DHT22;29610;49.022;12.114;2023-06-05T01:35:58;15.60;57.70
18794;DHT22;29610;49.022;12.114;2023-06-05T01:38:34;15.60;57.80
18794;DHT22;29610;49.022;12.114;2023-06-05T01:41:05;15.60;57.80
18794;DHT22;29610;49.022;12.114;2023-06-05T01:43:34;15.60;58.30
18794;DHT22;29610;49.022;12.114;2023-06-05T01:46:04;15.50;58.50
18794;DHT22;29610;49.022;12.114;2023-06-05T01:48:35;15.40;58.70
18794;DHT22;29610;49.022;12.114;2023-06-05T01:51:07;15.40;58.80
18794;DHT22;29610;49.022;12.114;2023-06-05T01:53:37;15.40;58.80
18794;DHT22;29610;49.022;12.114;2023-06-05T01:56:06;16.70;59.70
18794;DHT22;29610;49.022;12.114;2023-06-05T01:58:36;15.50;58.60
18794;DHT22;29610;49.022;12.114;2023-06-05T02:01:05;15.50;58.80
18794;DHT22;29610;49.022;12.114;2023-06-05T02:03:35;15.50;58.90
18794;DHT22;29610;49.022;12.114;2023-06-05T02:06:05;15.40;59.10
18794;DHT22;29610;49.022;12.114;2023-06-05T02:08:34;15.40;59.30
18794;DHT22;29610;49.022;12.114;2023-06-05T02:11:04;15.40;59.50
18794;DHT22;29610;49.022;12.114;2023-06-05T02:13:37;15.40;59.60
18794;DHT22;29610;49.022;12.114;2023-06-05T02:16:10;15.30;60.00
18794;DHT22;29610;49.022;12.114;2023-06-05T02:18:41;15.10;60.50
18794;DHT22;29610;49.022;12.114;2023-06-05T02:21:10;15.00;61.30
18794;DHT22;29610;49.022;12.114;2023-06-05T02:23:41;14.90;61.80
18794;DHT22;29610;49.022;12.114;2023-06-05T02:26:12;14.80;62.20
18794;DHT22;29610;49.022;12.114;2023-06-05T02:28:43;14.80;62.30
18794;DHT22;29610;49.022;12.114;2023-06-05T02:31:12;14.70;62.00
18794;DHT22;29610;49.022;12.114;2023-06-05T02:33:44;14.60;62.20
18794;DHT22;29610;49.022;12.114;2023-06-05T02:36:12;14.60;61.90
18794;DHT22;29610;49.022;12.114;2023-06-05T02:38:43;14.60;61.80
18794;DHT22;29610;49.022;12.114;2023-06-05T02:41:14;14.60;62.00
18794;DHT22;29610;49.022;12.114;2023-06-05T02:43:43;14.50;62.10
18794;DHT22;29610;49.022;12.114;2023-06-05T02:46:12;14.50;61.70
18794;DHT22;29610;49.022;12.114;2023-06-05T02:48:40;14.40;62.10
18794;DHT22;29610;49.022;12.114;2023-06-05T02:51:10;14.40;62.00
18794;DHT22;29610;49.022;12.114;2023-06-05T02:53:40;14.40;62.10
18794;DHT22;29610;49.022;12.114;2023-06-05T02:56:10;14.40;62.30
18794;DHT22;29610;49.022;12.114;2023-06-05T02:58:41;14.30;62.70
18794;DHT22;29610;49.022;12.114;2023-06-05T03:01:12;14.30;62.80
18794;DHT22;29610;49.022;12.114;2023-06-05T03:03:44;14.40;62.70
18794;DHT22;29610;49.022;12.114;2023-06-05T03:06:17;14.40;62.70
18794;DHT22;29610;49.022;12.114;2023-06-05T03:08:49;14.30;62.90
18794;DHT22;29610;49.022;12.114;2023-06-05T03:11:19;14.30;63.30
18794;DHT22;29610;49.022;12.114;2023-06-05T03:13:50;14.20;63.30
18794;DHT22;29610;49.022;12.114;2023-06-05T03:16:19;14.20;63.30
18794;DHT22;29610;49.022;12.114;2023-06-05T03:18:53;14.20;63.20
18794;DHT22;29610;49.022;12.114;2023-06-05T03:21:22;14.10;63.50
18794;DHT22;29610;49.022;12.114;2023-06-05T03:23:52;14.10;63.40
18794;DHT22;29610;49.022;12.114;2023-06-05T03:26:20;14.10;63.70
18794;DHT22;29610;49.022;12.114;2023-06-05T03:28:54;14.00;63.90
18794;DHT22;29610;49.022;12.114;2023-06-05T03:31:22;14.00;64.20
18794;DHT22;29610;49.022;12.114;2023-06-05T03:33:51;14.00;64.40
18794;DHT22;29610;49.022;12.114;2023-06-05T03:36:20;14.00;64.50
18794;DHT22;29610;49.022;12.114;2023-06-05T03:38:50;14.00;64.50
18794;DHT22;29610;49.022;12.114;2023-06-05T03:41:19;14.00;64.50
18794;DHT22;29610;49.022;12.114;2023-06-05T03:43:48;14.00;64.70
18794;DHT22;29610;49.022;12.114;2023-06-05T03:46:19;14.10;64.80
18794;DHT22;29610;49.022;12.114;2023-06-05T03:48:52;14.10;64.70
18794;DHT22;29610;49.022;12.114;2023-06-05T03:51:27;14.10;64.70
18794;DHT22;29610;49.022;12.114;2023-06-05T03:53:58;14.10;65.00
18794;DHT22;29610;49.022;12.114;2023-06-05T03:56:28;14.20;65.30
18794;DHT22;29610;49.022;12.114;2023-06-05T03:59:05;14.20;64.60
18794;DHT22;29610;49.022;12.114;2023-06-05T04:01:50;14.20;65.30
18794;DHT22;29610;49.022;12.114;2023-06-05T04:04:19;14.20;65.10
18794;DHT22;29610;49.022;12.114;2023-06-05T04:06:51;14.10;65.40
18794;DHT22;29610;49.022;12.114;2023-06-05T04:09:24;14.20;65.50
18794;DHT22;29610;49.022;12.114;2023-06-05T04:11:53;14.30;65.80
18794;DHT22;29610;49.022;12.114;2023-06-05T04:14:23;14.40;65.70
18794;DHT22;29610;49.022;12.114;2023-06-05T04:16:54;14.50;65.50
18794;DHT22;29610;49.022;12.114;2023-06-05T04:19:25;14.60;65.20
18794;DHT22;29610;49.022;12.114;2023-06-05T04:21:56;14.70;64.80
18794;DHT22;29610;49.022;12.114;2023-06-05T04:24:26;14.70;65.10
18794;DHT22;29610;49.022;12.114;2023-06-05T04:26:56;14.80;65.50
18794;DHT22;29610;49.022;12.114;2023-06-05T04:29:28;14.80;65.60
18794;DHT22;29610;49.022;12.114;2023-06-05T04:32:02;14.70;65.00
18794;DHT22;29610;49.022;12.114;2023-06-05T04:34:31;14.70;66.20
18794;DHT22;29610;49.022;12.114;2023-06-05T04:37:00;14.70;66.20
18794;DHT22;29610;49.022;12.114;2023-06-05T04:39:30;14.70;66.10
18794;DHT22;29610;49.022;12.114;2023-06-05T04:41:59;14.80;66.00
18794;DHT22;29610;49.022;12.114;2023-06-05T04:44:43;14.80;66.50
18794;DHT22;29610;49.022;12.114;2023-06-05T04:47:14;14.80;66.30
18794;DHT22;29610;49.022;12.114;2023-06-05T04:49:43;14.90;66.20
18794;DHT22;29610;49.022;12.114;2023-06-05T04:52:15;15.00;66.30
18794;DHT22;29610;49.022;12.114;2023-06-05T04:54:44;15.20;65.80
18794;DHT22;29610;49.022;12.114;2023-06-05T04:57:13;15.20;65.90
18794;DHT22;29610;49.022;12.114;2023-06-05T04:59:43;15.40;65.80
18794;DHT22;29610;49.022;12.114;2023-06-05T05:02:16;15.50;66.00
18794;DHT22;29610;49.022;12.114;2023-06-05T05:04:45;15.60;65.70
18794;DHT22;29610;49.022;12.114;2023-06-05T05:07:14;15.70;64.80
18794;DHT22;29610;49.022;12.114;2023-06-05T05:09:44;15.70;64.50
18794;DHT22;29610;49.022;12.114;2023-06-05T05:12:14;15.60;65.20
18794;DHT22;29610;49.022;12.114;2023-06-05T05:14:43;15.70;65.60
18794;DHT22;29610;49.022;12.114;2023-06-05T05:17:12;15.80;66.00
18794;DHT22;29610;49.022;12.114;2023-06-05T05:19:45;15.90;65.70
18794;DHT22;29610;49.022;12.114;2023-06-05T05:22:14;16.00;64.80
18794;DHT22;29610;49.022;12.114;2023-06-05T05:24:43;16.10;65.10
18794;DHT22;29610;49.022;12.114;2023-06-05T05:27:12;16.10;64.50
18794;DHT22;29610;49.022;12.114;2023-06-05T05:29:41;16.00;64.60
18794;DHT22;29610;49.022;12.114;2023-06-05T05:32:10;16.20;65.10
18794;DHT22;29610;49.022;12.114;2023-06-05T05:34:39;16.40;65.10
18794;DHT22;29610;49.022;12.114;2023-06-05T05:37:09;16.60;64.60
18794;DHT22;29610;49.022;12.114;2023-06-05T05:39:39;16.70;64.60
18794;DHT22;29610;49.022;12.114;2023-06-05T05:42:08;16.90;65.00
18794;DHT22;29610;49.022;12.114;2023-06-05T05:44:37;17.00;64.30
18794;DHT22;29610;49.022;12.114;2023-06-05T05:47:09;17.20;65.10
18794;DHT22;29610;49.022;12.114;2023-06-05T05:49:37;17.20;64.70
18794;DHT22;29610;49.022;12.114;2023-06-05T05:52:10;17.30;64.90
18794;DHT22;29610;49.022;12.114;2023-06-05T05:54:39;17.50;65.00
18794;DHT22;29610;49.022;12.114;2023-06-05T05:57:08;17.60;65.50
18794;DHT22;29610;49.022;12.114;2023-06-05T05:59:37;17.50;65.60
18794;DHT22;29610;49.022;12.114;2023-06-05T06:02:09;17.60;66.40
18794;DHT22;29610;49.022;12.114;2023-06-05T06:04:39;17.80;68.20
18794;DHT22;29610;49.022;12.114;2023-06-05T06:07:12;17.90;67.10
18794;DHT22;29610;49.022;12.114;2023-06-05T06:09:42;17.80;66.70
18794;DHT22;29610;49.022;12.114;2023-06-05T06:12:12;17.90;67.90
18794;DHT22;29610;49.022;12.114;2023-06-05T06:14:40;18.10;67.40
18794;DHT22;29610;49.022;12.114;2023-06-05T06:17:09;18.00;67.70
18794;DHT22;29610;49.022;12.114;2023-06-05T06:19:38;18.30;69.40
18794;DHT22;29610;49.022;12.114;2023-06-05T06:22:08;18.20;69.40
18794;DHT22;29610;49.022;12.114;2023-06-05T06:24:41;18.20;69.60
18794;DHT22;29610;49.022;12.114;2023-06-05T06:27:11;18.30;70.50
18794;DHT22;29610;49.022;12.114;2023-06-05T06:29:47;18.20;70.00
18794;DHT22;29610;49.022;12.114;2023-06-05T06:32:17;18.30;71.50
18794;DHT22;29610;49.022;12.114;2023-06-05T06:34:46;18.40;71.40
18794;DHT22;29610;49.022;12.114;2023-06-05T06:37:15;18.60;70.70
18794;DHT22;29610;49.022;12.114;2023-06-05T06:39:46;18.50;70.60
18794;DHT22;29610;49.022;12.114;2023-06-05T06:42:15;18.60;70.30
18794;DHT22;29610;49.022;12.114;2023-06-05T06:44:54;18.80;70.30
18794;DHT22;29610;49.022;12.114;2023-06-05T06:47:25;20.00;71.60
18794;DHT22;29610;49.022;12.114;2023-06-05T06:49:53;18.50;70.30
18794;DHT22;29610;49.022;12.114;2023-06-05T06:52:23;18.50;72.00
18794;DHT22;29610;49.022;12.114;2023-06-05T06:54:54;18.60;70.90
18794;DHT22;29610;49.022;12.114;2023-06-05T06:57:23;18.70;71.90
18794;DHT22;29610;49.022;12.114;2023-06-05T06:59:52;19.00;71.40
18794;DHT22;29610;49.022;12.114;2023-06-05T07:02:23;19.20;71.30
18794;DHT22;29610;49.022;12.114;2023-06-05T07:04:53;19.00;71.60
18794;DHT22;29610;49.022;12.114;2023-06-05T07:07:22;19.20;71.00
18794;DHT22;29610;49.022;12.114;2023-06-05T07:09:51;18.90;72.10
18794;DHT22;29610;49.022;12.114;2023-06-05T07:12:21;19.10;71.70
18794;DHT22;29610;49.022;12.114;2023-06-05T07:14:50;19.20;72.20
18794;DHT22;29610;49.022;12.114;2023-06-05T07:17:19;19.40;72.30
18794;DHT22;29610;49.022;12.114;2023-06-05T07:19:49;19.90;72.20
18794;DHT22;29610;49.022;12.114;2023-06-05T07:22:18;20.20;71.40
18794;DHT22;29610;49.022;12.114;2023-06-05T07:24:47;20.30;69.80
18794;DHT22;29610;49.022;12.114;2023-06-05T07:27:16;20.40;70.40
18794;DHT22;29610;49.022;12.114;2023-06-05T07:29:46;20.60;69.20
18794;DHT22;29610;49.022;12.114;2023-06-05T07:32:18;20.50;70.20
18794;DHT22;29610;49.022;12.114;2023-06-05T07:34:47;20.20;70.10
18794;DHT22;29610;49.022;12.114;2023-06-05T07:37:16;20.30;70.00
18794;DHT22;29610;49.022;12.114;2023-06-05T07:39:45;20.20;69.60
18794;DHT22;29610;49.022;12.114;2023-06-05T07:42:17;20.20;71.30
18794;DHT22;29610;49.022;12.114;2023-06-05T07:44:47;20.40;70.80
18794;DHT22;29610;49.022;12.114;2023-06-05T07:47:16;20.60;69.40
18794;DHT22;29610;49.022;12.114;2023-06-05T07:49:56;20.70;69.30
18794;DHT22;29610;49.022;12.114;2023-06-05T07:52:26;20.70;69.10
18794;DHT22;29610;49.022;12.114;2023-06-05T07:54:55;20.90;68.50
18794;DHT22;29610;49.022;12.114;2023-06-05T07:57:24;21.30;68.40
18794;DHT22;29610;49.022;12.114;2023-06-05T07:59:55;21.60;68.50
18794;DHT22;29610;49.022;12.114;2023-06-05T08:02:24;22.00;68.50
18794;DHT22;29610;49.022;12.114;2023-06-05T08:04:53;22.40;68.20
18794;DHT22;29610;49.022;12.114;2023-06-05T08:07:22;22.40;66.20
18794;DHT22;29610;49.022;12.114;2023-06-05T08:09:51;22.90;65.10
18794;DHT22;29610;49.022;12.114;2023-06-05T08:12:20;23.10;65.30
18794;DHT22;29610;49.022;12.114;2023-06-05T08:14:48;23.50;65.30
18794;DHT22;29610;49.022;12.114;2023-06-05T08:17:18;24.10;63.40
18794;DHT22;29610;49.022;12.114;2023-06-05T08:19:47;24.10;63.10
18794;DHT22;29610;49.022;12.114;2023-06-05T08:22:16;24.10;62.60
18794;DHT22;29610;49.022;12.114;2023-06-05T08:24:45;24.00;62.10
18794;DHT22;29610;49.022;12.114;2023-06-05T08:27:16;23.80;65.20
18794;DHT22;29610;49.022;12.114;2023-06-05T08:29:45;23.50;62.40
18794;DHT22;29610;49.022;12.114;2023-06-05T08:32:14;23.50;62.30
18794;DHT22;29610;49.022;12.114;2023-06-05T08:34:46;23.80;63.20
18794;DHT22;29610;49.022;12.114;2023-06-05T08:37:15;24.20;63.40
18794;DHT22;29610;49.022;12.114;2023-06-05T08:39:44;24.70;59.70
18794;DHT22;29610;49.022;12.114;2023-06-05T08:42:14;24.40;59.10
18794;DHT22;29610;49.022;12.114;2023-06-05T08:44:46;24.00;59.70
18794;DHT22;29610;49.022;12.114;2023-06-05T08:47:29;23.80;61.10
18794;DHT22;29610;49.022;12.114;2023-06-05T08:50:03;24.40;60.50
18794;DHT22;29610;49.022;12.114;2023-06-05T08:52:37;24.70;61.80
18794;DHT22;29610;49.022;12.114;2023-06-05T08:55:08;24.80;61.30
18794;DHT22;29610;49.022;12.114;2023-06-05T08:57:39;24.60;60.00
18794;DHT22;29610;49.022;12.114;2023-06-05T09:00:10;24.00;63.70
18794;DHT22;29610;49.022;12.114;2023-06-05T09:02:41;24.80;64.90
18794;DHT22;29610;49.022;12.114;2023-06-05T09:05:16;25.50;62.60
18794;DHT22;29610;49.022;12.114;2023-06-05T09:07:45;25.80;57.90
18794;DHT22;29610;49.022;12.114;2023-06-05T09:10:24;25.60;58.50
18794;DHT22;29610;49.022;12.114;2023-06-05T09:12:57;25.00;60.10
18794;DHT22;29610;49.022;12.114;2023-06-05T09:15:28;24.50;61.60
18794;DHT22;29610;49.022;12.114;2023-06-05T09:18:03;25.00;64.80
18794;DHT22;29610;49.022;12.114;2023-06-05T09:20:38;25.00;62.50
18794;DHT22;29610;49.022;12.114;2023-06-05T09:23:22;24.90;59.80
18794;DHT22;29610;49.022;12.114;2023-06-05T09:25:56;24.20;60.40
18794;DHT22;29610;49.022;12.114;2023-06-05T09:28:26;24.10;61.60
18794;DHT22;29610;49.022;12.114;2023-06-05T09:30:57;24.60;62.20
18794;DHT22;29610;49.022;12.114;2023-06-05T09:33:28;24.40;61.80
18794;DHT22;29610;49.022;12.114;2023-06-05T09:36:07;24.00;62.70
18794;DHT22;29610;49.022;12.114;2023-06-05T09:38:39;23.80;62.50
18794;DHT22;29610;49.022;12.114;2023-06-05T09:41:10;23.80;62.80
18794;DHT22;29610;49.022;12.114;2023-06-05T09:43:41;23.40;62.10
18794;DHT22;29610;49.022;12.114;2023-06-05T09:46:11;23.60;64.60
18794;DHT22;29610;49.022;12.114;2023-06-05T09:48:42;23.70;62.80
18794;DHT22;29610;49.022;12.114;2023-06-05T09:51:22;23.70;62.70
18794;DHT22;29610;49.022;12.114;2023-06-05T09:53:50;23.20;63.20
18794;DHT22;29610;49.022;12.114;2023-06-05T09:56:22;22.80;65.10
18794;DHT22;29610;49.022;12.114;2023-06-05T09:58:51;22.80;66.30
18794;DHT22;29610;49.022;12.114;2023-06-05T10:01:23;22.90;65.10
18794;DHT22;29610;49.022;12.114;2023-06-05T10:03:58;23.00;66.40
18794;DHT22;29610;49.022;12.114;2023-06-05T10:06:29;23.50;64.30
18794;DHT22;29610;49.022;12.114;2023-06-05T10:09:00;23.80;64.80
18794;DHT22;29610;49.022;12.114;2023-06-05T10:11:30;25.00;65.90
18794;DHT22;29610;49.022;12.114;2023-06-05T10:13:59;25.90;62.90
18794;DHT22;29610;49.022;12.114;2023-06-05T10:16:29;25.50;59.30
18794;DHT22;29610;49.022;12.114;2023-06-05T10:18:59;24.70;61.30
18794;DHT22;29610;49.022;12.114;2023-06-05T10:21:30;24.20;63.30
18794;DHT22;29610;49.022;12.114;2023-06-05T10:24:03;24.10;63.10
18794;DHT22;29610;49.022;12.114;2023-06-05T10:30:19;24.10;63.10
18794;DHT22;29610;49.022;12.114;2023-06-05T10:33:07;23.30;63.20
18794;DHT22;29610;49.022;12.114;2023-06-05T10:35:50;23.00;64.30
18794;DHT22;29610;49.022;12.114;2023-06-05T10:38:29;23.20;65.00
18794;DHT22;29610;49.022;12.114;2023-06-05T10:41:02;23.40;64.90
18794;DHT22;29610;49.022;12.114;2023-06-05T10:43:35;23.50;65.50
18794;DHT22;29610;49.022;12.114;2023-06-05T10:46:29;24.20;65.70
18794;DHT22;29610;49.022;12.114;2023-06-05T10:49:10;24.50;61.40
18794;DHT22;29610;49.022;12.114;2023-06-05T10:51:43;23.60;63.50
18794;DHT22;29610;49.022;12.114;2023-06-05T10:54:53;23.70;65.60
18794;DHT22;29610;49.022;12.114;2023-06-05T10:57:23;23.80;65.80
18794;DHT22;29610;49.022;12.114;2023-06-05T11:00:06;24.60;62.80
18794;DHT22;29610;49.022;12.114;2023-06-05T11:02:46;24.90;61.10
18794;DHT22;29610;49.022;12.114;2023-06-05T11:05:16;24.70;61.40
18794;DHT22;29610;49.022;12.114;2023-06-05T11:07:45;24.90;61.50
18794;DHT22;29610;49.022;12.114;2023-06-05T11:10:18;24.80;59.70
18794;DHT22;29610;49.022;12.114;2023-06-05T11:12:59;24.60;63.00
18794;DHT22;29610;49.022;12.114;2023-06-05T11:15:50;24.50;61.60
18794;DHT22;29610;49.022;12.114;2023-06-05T11:18:32;24.30;62.40
18794;DHT22;29610;49.022;12.114;2023-06-05T11:21:02;23.80;62.90
18794;DHT22;29610;49.022;12.114;2023-06-05T11:23:31;23.40;64.50
18794;DHT22;29610;49.022;12.114;2023-06-05T11:26:40;22.90;65.90
18794;DHT22;29610;49.022;12.114;2023-06-05T11:29:13;22.80;66.80
18794;DHT22;29610;49.022;12.114;2023-06-05T11:31:44;23.10;66.50
18794;DHT22;29610;49.022;12.114;2023-06-05T11:34:14;22.90;66.60
18794;DHT22;29610;49.022;12.114;2023-06-05T11:36:43;22.80;66.50
18794;DHT22;29610;49.022;12.114;2023-06-05T11:39:13;22.60;67.90
18794;DHT22;29610;49.022;12.114;2023-06-05T11:41:48;22.30;67.60
18794;DHT22;29610;49.022;12.114;2023-06-05T11:44:30;22.20;67.20
18794;DHT22;29610;49.022;12.114;2023-06-05T11:47:00;22.40;68.70
18794;DHT22;29610;49.022;12.114;2023-06-05T11:49:30;22.70;68.80
18794;DHT22;29610;49.022;12.114;2023-06-05T11:51:59;23.00;66.90
18794;DHT22;29610;49.022;12.114;2023-06-05T11:54:29;22.90;66.70
18794;DHT22;29610;49.022;12.114;2023-06-05T11:57:03;22.90;66.90
18794;DHT22;29610;49.022;12.114;2023-06-05T11:59:38;22.50;67.30
18794;DHT22;29610;49.022;12.114;2023-06-05T12:02:07;22.40;67.90
18794;DHT22;29610;49.022;12.114;2023-06-05T12:04:39;22.50;67.50
18794;DHT22;29610;49.022;12.114;2023-06-05T12:07:09;22.50;68.10
18794;DHT22;29610;49.022;12.114;2023-06-05T12:09:39;22.80;67.80
18794;DHT22;29610;49.022;12.114;2023-06-05T12:12:10;22.80;67.20
18794;DHT22;29610;49.022;12.114;2023-06-05T12:14:39;22.60;67.90
18794;DHT22;29610;49.022;12.114;2023-06-05T12:17:12;22.50;67.70
18794;DHT22;29610;49.022;12.114;2023-06-05T12:19:41;22.50;69.30
18794;DHT22;29610;49.022;12.114;2023-06-05T12:22:10;23.30;67.40
18794;DHT22;29610;49.022;12.114;2023-06-05T12:24:39;23.20;67.60
18794;DHT22;29610;49.022;12.114;2023-06-05T12:27:10;23.60;68.60
18794;DHT22;29610;49.022;12.114;2023-06-05T12:29:52;24.10;65.30
18794;DHT22;29610;49.022;12.114;2023-06-05T12:32:24;24.20;65.10
18794;DHT22;29610;49.022;12.114;2023-06-05T12:34:54;23.60;65.40
18794;DHT22;29610;49.022;12.114;2023-06-05T12:37:34;23.20;67.90
18794;DHT22;29610;49.022;12.114;2023-06-05T12:40:07;23.00;67.80
18794;DHT22;29610;49.022;12.114;2023-06-05T12:42:41;22.90;68.30
18794;DHT22;29610;49.022;12.114;2023-06-05T12:45:11;23.20;69.30
18794;DHT22;29610;49.022;12.114;2023-06-05T12:47:41;23.60;66.40
18794;DHT22;29610;49.022;12.114;2023-06-05T12:50:12;23.60;66.60
18794;DHT22;29610;49.022;12.114;2023-06-05T12:52:41;23.80;68.40
18794;DHT22;29610;49.022;12.114;2023-06-05T12:55:10;24.10;66.70
18794;DHT22;29610;49.022;12.114;2023-06-05T12:57:41;24.20;65.90
18794;DHT22;29610;49.022;12.114;2023-06-05T13:00:10;23.70;64.90
18794;DHT22;29610;49.022;12.114;2023-06-05T13:02:41;24.10;67.30
18794;DHT22;29610;49.022;12.114;2023-06-05T13:05:13;24.70;65.90
18794;DHT22;29610;49.022;12.114;2023-06-05T13:07:42;24.80;65.00
18794;DHT22;29610;49.022;12.114;2023-06-05T13:10:11;24.50;64.40
18794;DHT22;29610;49.022;12.114;2023-06-05T13:12:42;24.00;65.20
18794;DHT22;29610;49.022;12.114;2023-06-05T13:15:11;23.70;65.90
18794;DHT22;29610;49.022;12.114;2023-06-05T13:17:40;24.00;66.10
18794;DHT22;29610;49.022;12.114;2023-06-05T13:20:10;24.20;66.60
18794;DHT22;29610;49.022;12.114;2023-06-05T13:22:40;24.20;65.50
18794;DHT22;29610;49.022;12.114;2023-06-05T13:25:09;24.20;66.30
18794;DHT22;29610;49.022;12.114;2023-06-05T13:27:39;24.50;64.40
18794;DHT22;29610;49.022;12.114;2023-06-05T13:30:10;24.60;64.80
18794;DHT22;29610;49.022;12.114;2023-06-05T13:32:39;25.00;65.40
18794;DHT22;29610;49.022;12.114;2023-06-05T13:35:08;25.00;65.20
18794;DHT22;29610;49.022;12.114;2023-06-05T13:37:38;25.50;63.60
18794;DHT22;29610;49.022;12.114;2023-06-05T13:40:08;25.20;63.30
18794;DHT22;29610;49.022;12.114;2023-06-05T13:42:39;24.60;64.40
18794;DHT22;29610;49.022;12.114;2023-06-05T13:45:10;24.60;65.70
18794;DHT22;29610;49.022;12.114;2023-06-05T13:47:39;25.20;63.30
18794;DHT22;29610;49.022;12.114;2023-06-05T13:50:08;25.30;63.30
18794;DHT22;29610;49.022;12.114;2023-06-05T13:52:37;24.10;62.20
18794;DHT22;29610;49.022;12.114;2023-06-05T13:55:07;23.60;64.90
18794;DHT22;29610;49.022;12.114;2023-06-05T13:57:36;24.00;64.80
18794;DHT22;29610;49.022;12.114;2023-06-05T14:00:06;24.20;63.60
18794;DHT22;29610;49.022;12.114;2023-06-05T14:02:38;24.40;64.60
18794;DHT22;29610;49.022;12.114;2023-06-05T14:05:07;24.40;64.60
18794;DHT22;29610;49.022;12.114;2023-06-05T14:07:37;24.40;64.10
18794;DHT22;29610;49.022;12.114;2023-06-05T14:10:17;23.90;63.90
18794;DHT22;29610;49.022;12.114;2023-06-05T14:12:46;23.50;65.10
18794;DHT22;29610;49.022;12.114;2023-06-05T14:15:16;23.20;66.70
18794;DHT22;29610;49.022;12.114;2023-06-05T14:17:48;23.20;67.70
18794;DHT22;29610;49.022;12.114;2023-06-05T14:20:19;23.30;66.50
18794;DHT22;29610;49.022;12.114;2023-06-05T14:22:48;23.20;66.80
18794;DHT22;29610;49.022;12.114;2023-06-05T14:25:18;22.80;67.70
18794;DHT22;29610;49.022;12.114;2023-06-05T14:27:49;22.80;66.00
18794;DHT22;29610;49.022;12.114;2023-06-05T14:30:19;22.90;67.40
18794;DHT22;29610;49.022;12.114;2023-06-05T14:32:50;23.50;67.70
18794;DHT22;29610;49.022;12.114;2023-06-05T14:35:18;23.10;67.80
18794;DHT22;29610;49.022;12.114;2023-06-05T14:37:48;22.80;65.80
18794;DHT22;29610;49.022;12.114;2023-06-05T14:40:17;23.10;66.80
18794;DHT22;29610;49.022;12.114;2023-06-05T14:42:46;23.40;67.30
18794;DHT22;29610;49.022;12.114;2023-06-05T14:45:14;23.30;66.10
18794;DHT22;29610;49.022;12.114;2023-06-05T14:47:43;23.20;65.00
18794;DHT22;29610;49.022;12.114;2023-06-05T14:50:16;23.20;64.10
18794;DHT22;29610;49.022;12.114;2023-06-05T14:52:44;22.90;62.20
18794;DHT22;29610;49.022;12.114;2023-06-05T14:55:13;22.90;62.80
18794;DHT22;29610;49.022;12.114;2023-06-05T14:57:42;22.70;66.50
18794;DHT22;29610;49.022;12.114;2023-06-05T15:00:12;23.10;66.10
18794;DHT22;29610;49.022;12.114;2023-06-05T15:02:41;22.90;65.20
18794;DHT22;29610;49.022;12.114;2023-06-05T15:05:10;22.80;64.30
18794;DHT22;29610;49.022;12.114;2023-06-05T15:07:41;22.50;63.90
18794;DHT22;29610;49.022;12.114;2023-06-05T15:10:11;22.50;63.10
18794;DHT22;29610;49.022;12.114;2023-06-05T15:12:42;22.50;65.00
18794;DHT22;29610;49.022;12.114;2023-06-05T15:15:11;22.70;65.50
18794;DHT22;29610;49.022;12.114;2023-06-05T15:17:43;23.20;64.80
18794;DHT22;29610;49.022;12.114;2023-06-05T15:20:12;23.30;65.20
18794;DHT22;29610;49.022;12.114;2023-06-05T15:22:42;23.40;65.70
18794;DHT22;29610;49.022;12.114;2023-06-05T15:25:11;22.90;63.90
18794;DHT22;29610;49.022;12.114;2023-06-05T15:27:40;22.30;66.50
18794;DHT22;29610;49.022;12.114;2023-06-05T15:30:09;22.00;66.70
18794;DHT22;29610;49.022;12.114;2023-06-05T15:32:38;21.40;69.00
18794;DHT22;29610;49.022;12.114;2023-06-05T15:35:08;21.00;70.70
18794;DHT22;29610;49.022;12.114;2023-06-05T15:37:37;20.90;72.20
18794;DHT22;29610;49.022;12.114;2023-06-05T15:40:08;20.90;71.70
18794;DHT22;29610;49.022;12.114;2023-06-05T15:42:37;20.80;72.40